sensor_id;sensor_type;location;lat;lon;timestamp;temperature;humidity
25550;DHT22;13444;50.562;7.262;2022-07-23T00:00:07;20.70;99.90
25550;DHT22;13444;50.562;7.262;2022-07-23T00:02:33;20.70;99.90
25550;DHT22;13444;50.562;7.262;2022-07-23T00:04:59;20.80;99.90
25550;DHT22;13444;50.562;7.262;2022-07-23T00:07:24;20.70;99.90
25550;DHT22;13444;50.562;7.262;2022-07-23T00:09:50;20.70;99.90
25550;DHT22;13444;50.562;7.262;2022-07-23T00:12:15;20.70;99.90
25550;DHT22;13444;50.562;7.262;2022-07-23T00:14:41;20.70;99.90
25550;DHT22;13444;50.562;7.262;2022-07-23T00:17:06;20.70;99.90
25550;DHT22;13444;50.562;7.262;2022-07-23T00:19:32;20.70;99.90
25550;DHT22;13444;50.562;7.262;2022-07-23T00:21:58;20.70;99.90
25550;DHT22;13444;50.562;7.262;2022-07-23T00:24:23;20.70;99.90
25550;DHT22;13444;50.562;7.262;2022-07-23T00:26:49;20.60;99.90
25550;DHT22;13444;50.562;7.262;2022-07-23T00:29:14;20.60;99.90
25550;DHT22;13444;50.562;7.262;2022-07-23T00:31:40;20.60;99.90
25550;DHT22;13444;50.562;7.262;2022-07-23T00:34:06;20.60;99.90
25550;DHT22;13444;50.562;7.262;2022-07-23T00:36:31;20.60;99.90
25550;DHT22;13444;50.562;7.262;2022-07-23T00:38:57;20.60;99.90
25550;DHT22;13444;50.562;7.262;2022-07-23T00:41:23;20.60;99.90
25550;DHT22;13444;50.562;7.262;2022-07-23T00:43:48;20.60;99.90
25550;DHT22;13444;50.562;7.262;2022-07-23T00:46:22;20.50;99.90
25550;DHT22;13444;50.562;7.262;2022-07-23T00:48:48;20.50;99.90
25550;DHT22;13444;50.562;7.262;2022-07-23T00:51:17;20.50;99.90
25550;DHT22;13444;50.562;7.262;2022-07-23T00:53:44;20.50;99.90
25550;DHT22;13444;50.562;7.262;2022-07-23T00:56:10;20.50;99.90
25550;DHT22;13444;50.562;7.262;2022-07-23T00:58:36;20.50;99.90
25550;DHT22;13444;50.562;7.262;2022-07-23T01:01:04;20.50;99.90
25550;DHT22;13444;50.562;7.262;2022-07-23T01:03:29;20.50;99.90
25550;DHT22;13444;50.562;7.262;2022-07-23T01:05:55;20.50;99.90
25550;DHT22;13444;50.562;7.262;2022-07-23T01:08:22;20.50;99.90
25550;DHT22;13444;50.562;7.262;2022-07-23T01:10:48;20.40;99.90
25550;DHT22;13444;50.562;7.262;2022-07-23T01:13:14;20.40;99.90
25550;DHT22;13444;50.562;7.262;2022-07-23T01:15:39;20.40;99.90
25550;DHT22;13444;50.562;7.262;2022-07-23T01:18:05;20.40;99.90
25550;DHT22;13444;50.562;7.262;2022-07-23T01:20:32;20.40;99.90
25550;DHT22;13444;50.562;7.262;2022-07-23T01:22:58;20.40;99.90
25550;DHT22;13444;50.562;7.262;2022-07-23T01:25:24;20.30;99.90
25550;DHT22;13444;50.562;7.262;2022-07-23T01:27:52;20.30;99.90
25550;DHT22;13444;50.562;7.262;2022-07-23T01:30:18;20.30;99.90
25550;DHT22;13444;50.562;7.262;2022-07-23T01:32:43;20.30;99.90
25550;DHT22;13444;50.562;7.262;2022-07-23T01:35:09;20.30;99.90
25550;DHT22;13444;50.562;7.262;2022-07-23T01:37:36;20.20;99.90
25550;DHT22;13444;50.562;7.262;2022-07-23T01:40:02;20.20;99.90
25550;DHT22;13444;50.562;7.262;2022-07-23T01:42:27;20.20;99.90
25550;DHT22;13444;50.562;7.262;2022-07-23T01:44:53;20.20;99.90
25550;DHT22;13444;50.562;7.262;2022-07-23T01:47:18;20.20;99.90
25550;DHT22;13444;50.562;7.262;2022-07-23T01:49:44;20.20;99.90
25550;DHT22;13444;50.562;7.262;2022-07-23T01:52:10;20.20;99.90
25550;DHT22;13444;50.562;7.262;2022-07-23T01:54:37;20.20;99.90
25550;DHT22;13444;50.562;7.262;2022-07-23T01:57:04;20.10;99.90
25550;DHT22;13444;50.562;7.262;2022-07-23T01:59:30;20.10;99.90
25550;DHT22;13444;50.562;7.262;2022-07-23T02:01:56;20.20;99.90
25550;DHT22;13444;50.562;7.262;2022-07-23T02:04:23;20.10;99.90
25550;DHT22;13444;50.562;7.262;2022-07-23T02:06:49;20.10;99.90
25550;DHT22;13444;50.562;7.262;2022-07-23T02:09:16;20.10;99.90
25550;DHT22;13444;50.562;7.262;2022-07-23T02:11:42;20.10;99.90
25550;DHT22;13444;50.562;7.262;2022-07-23T02:14:07;20.10;99.90
25550;DHT22;13444;50.562;7.262;2022-07-23T02:16:33;20.10;99.90
25550;DHT22;13444;50.562;7.262;2022-07-23T02:18:59;20.10;99.90
25550;DHT22;13444;50.562;7.262;2022-07-23T02:21:24;20.10;99.90
25550;DHT22;13444;50.562;7.262;2022-07-23T02:23:50;20.10;99.90
25550;DHT22;13444;50.562;7.262;2022-07-23T02:26:15;20.00;99.90
25550;DHT22;13444;50.562;7.262;2022-07-23T02:28:41;19.90;99.90
25550;DHT22;13444;50.562;7.262;2022-07-23T02:31:06;19.90;99.90
25550;DHT22;13444;50.562;7.262;2022-07-23T02:33:32;19.90;99.90
25550;DHT22;13444;50.562;7.262;2022-07-23T02:35:58;19.80;99.90
25550;DHT22;13444;50.562;7.262;2022-07-23T02:38:24;19.80;99.90
25550;DHT22;13444;50.562;7.262;2022-07-23T02:40:49;19.80;99.90
25550;DHT22;13444;50.562;7.262;2022-07-23T02:43:15;19.80;99.90
25550;DHT22;13444;50.562;7.262;2022-07-23T02:45:40;19.70;99.90
25550;DHT22;13444;50.562;7.262;2022-07-23T02:48:06;19.70;99.90
25550;DHT22;13444;50.562;7.262;2022-07-23T02:50:31;19.60;99.90
25550;DHT22;13444;50.562;7.262;2022-07-23T02:52:57;19.60;99.90
25550;DHT22;13444;50.562;7.262;2022-07-23T02:55:23;19.50;99.90
25550;DHT22;13444;50.562;7.262;2022-07-23T02:57:48;19.40;99.90
25550;DHT22;13444;50.562;7.262;2022-07-23T03:00:14;19.40;99.90
25550;DHT22;13444;50.562;7.262;2022-07-23T03:02:39;19.40;99.90
25550;DHT22;13444;50.562;7.262;2022-07-23T03:05:06;19.40;99.90
25550;DHT22;13444;50.562;7.262;2022-07-23T03:07:31;19.30;99.90
25550;DHT22;13444;50.562;7.262;2022-07-23T03:09:57;19.30;99.90
25550;DHT22;13444;50.562;7.262;2022-07-23T03:12:22;19.20;99.90
25550;DHT22;13444;50.562;7.262;2022-07-23T03:14:48;19.20;99.90
25550;DHT22;13444;50.562;7.262;2022-07-23T03:17:14;19.20;99.90
25550;DHT22;13444;50.562;7.262;2022-07-23T03:19:39;19.20;99.90
25550;DHT22;13444;50.562;7.262;2022-07-23T03:22:05;19.20;99.90
25550;DHT22;13444;50.562;7.262;2022-07-23T03:24:31;19.10;99.90
25550;DHT22;13444;50.562;7.262;2022-07-23T03:27:15;19.00;99.90
25550;DHT22;13444;50.562;7.262;2022-07-23T03:29:40;19.00;99.90
25550;DHT22;13444;50.562;7.262;2022-07-23T03:32:06;18.90;99.90
25550;DHT22;13444;50.562;7.262;2022-07-23T03:34:32;18.90;99.90
25550;DHT22;13444;50.562;7.262;2022-07-23T03:36:57;18.90;99.90
25550;DHT22;13444;50.562;7.262;2022-07-23T03:39:23;18.90;99.90
25550;DHT22;13444;50.562;7.262;2022-07-23T03:41:48;18.80;99.90
25550;DHT22;13444;50.562;7.262;2022-07-23T03:44:14;18.80;99.90
25550;DHT22;13444;50.562;7.262;2022-07-23T03:46:39;18.70;99.90
25550;DHT22;13444;50.562;7.262;2022-07-23T03:49:05;18.70;99.90
25550;DHT22;13444;50.562;7.262;2022-07-23T03:51:30;18.70;99.90
25550;DHT22;13444;50.562;7.262;2022-07-23T03:53:56;18.70;99.90
25550;DHT22;13444;50.562;7.262;2022-07-23T03:56:21;18.70;99.90
25550;DHT22;13444;50.562;7.262;2022-07-23T03:58:47;18.60;99.90
25550;DHT22;13444;50.562;7.262;2022-07-23T04:01:13;18.60;99.90
25550;DHT22;13444;50.562;7.262;2022-07-23T04:03:38;18.60;99.90
25550;DHT22;13444;50.562;7.262;2022-07-23T04:06:04;18.60;99.90
25550;DHT22;13444;50.562;7.262;2022-07-23T04:08:30;18.60;99.90
25550;DHT22;13444;50.562;7.262;2022-07-23T04:10:56;18.60;99.90
25550;DHT22;13444;50.562;7.262;2022-07-23T04:13:21;18.60;99.90
25550;DHT22;13444;50.562;7.262;2022-07-23T04:15:47;18.60;99.90
25550;DHT22;13444;50.562;7.262;2022-07-23T04:18:12;18.60;99.90
25550;DHT22;13444;50.562;7.262;2022-07-23T04:20:38;18.60;99.90
25550;DHT22;13444;50.562;7.262;2022-07-23T04:23:04;18.60;99.90
25550;DHT22;13444;50.562;7.262;2022-07-23T04:25:29;18.50;99.90
25550;DHT22;13444;50.562;7.262;2022-07-23T04:27:55;18.50;99.90
25550;DHT22;13444;50.562;7.262;2022-07-23T04:30:20;18.50;99.90
25550;DHT22;13444;50.562;7.262;2022-07-23T04:32:46;18.50;99.90
25550;DHT22;13444;50.562;7.262;2022-07-23T04:35:11;18.50;99.90
25550;DHT22;13444;50.562;7.262;2022-07-23T04:37:37;18.40;99.90
25550;DHT22;13444;50.562;7.262;2022-07-23T04:40:03;18.40;99.90
25550;DHT22;13444;50.562;7.262;2022-07-23T04:42:29;18.40;99.90
25550;DHT22;13444;50.562;7.262;2022-07-23T04:44:54;18.40;99.90
25550;DHT22;13444;50.562;7.262;2022-07-23T04:47:19;18.50;99.90
25550;DHT22;13444;50.562;7.262;2022-07-23T04:49:45;18.50;99.90
25550;DHT22;13444;50.562;7.262;2022-07-23T04:52:10;18.50;99.90
25550;DHT22;13444;50.562;7.262;2022-07-23T04:54:36;18.60;99.90
25550;DHT22;13444;50.562;7.262;2022-07-23T04:57:02;18.60;99.90
25550;DHT22;13444;50.562;7.262;2022-07-23T04:59:27;18.70;99.90
25550;DHT22;13444;50.562;7.262;2022-07-23T05:01:53;18.70;99.90
25550;DHT22;13444;50.562;7.262;2022-07-23T05:04:18;18.70;99.90
25550;DHT22;13444;50.562;7.262;2022-07-23T05:06:44;18.60;99.90
25550;DHT22;13444;50.562;7.262;2022-07-23T05:09:09;18.70;99.90
25550;DHT22;13444;50.562;7.262;2022-07-23T05:11:35;18.70;99.90
25550;DHT22;13444;50.562;7.262;2022-07-23T05:14:00;18.70;99.90
25550;DHT22;13444;50.562;7.262;2022-07-23T05:16:26;18.70;99.90
25550;DHT22;13444;50.562;7.262;2022-07-23T05:18:51;18.70;99.90
25550;DHT22;13444;50.562;7.262;2022-07-23T05:21:17;18.80;99.90
25550;DHT22;13444;50.562;7.262;2022-07-23T05:23:42;18.90;99.90
25550;DHT22;13444;50.562;7.262;2022-07-23T05:26:08;18.90;99.90
25550;DHT22;13444;50.562;7.262;2022-07-23T05:28:33;19.10;99.90
25550;DHT22;13444;50.562;7.262;2022-07-23T05:30:59;19.20;99.90
25550;DHT22;13444;50.562;7.262;2022-07-23T05:33:24;19.50;99.90
25550;DHT22;13444;50.562;7.262;2022-07-23T05:35:50;19.90;99.90
25550;DHT22;13444;50.562;7.262;2022-07-23T05:38:15;20.30;99.90
25550;DHT22;13444;50.562;7.262;2022-07-23T05:40:41;20.60;99.90
25550;DHT22;13444;50.562;7.262;2022-07-23T05:43:06;20.90;99.90
25550;DHT22;13444;50.562;7.262;2022-07-23T05:45:32;21.20;99.90
25550;DHT22;13444;50.562;7.262;2022-07-23T05:47:57;21.40;99.90
25550;DHT22;13444;50.562;7.262;2022-07-23T05:50:23;21.50;99.90
25550;DHT22;13444;50.562;7.262;2022-07-23T05:52:48;21.50;99.90
25550;DHT22;13444;50.562;7.262;2022-07-23T05:55:14;21.50;99.90
25550;DHT22;13444;50.562;7.262;2022-07-23T05:57:40;21.40;99.90
25550;DHT22;13444;50.562;7.262;2022-07-23T06:00:08;21.40;99.90
25550;DHT22;13444;50.562;7.262;2022-07-23T06:02:34;21.40;99.90
25550;DHT22;13444;50.562;7.262;2022-07-23T06:04:59;21.40;99.90
25550;DHT22;13444;50.562;7.262;2022-07-23T06:07:25;21.40;99.90
25550;DHT22;13444;50.562;7.262;2022-07-23T06:09:50;21.60;99.90
25550;DHT22;13444;50.562;7.262;2022-07-23T06:12:16;21.60;99.90
25550;DHT22;13444;50.562;7.262;2022-07-23T06:14:42;21.70;99.90
25550;DHT22;13444;50.562;7.262;2022-07-23T06:17:08;21.80;99.90
25550;DHT22;13444;50.562;7.262;2022-07-23T06:19:34;21.80;99.90
25550;DHT22;13444;50.562;7.262;2022-07-23T06:22:00;21.80;99.90
25550;DHT22;13444;50.562;7.262;2022-07-23T06:24:25;21.70;99.90
25550;DHT22;13444;50.562;7.262;2022-07-23T06:26:51;21.50;99.90
25550;DHT22;13444;50.562;7.262;2022-07-23T06:29:16;21.30;99.90
25550;DHT22;13444;50.562;7.262;2022-07-23T06:31:42;21.30;99.90
25550;DHT22;13444;50.562;7.262;2022-07-23T06:34:08;21.30;99.90
25550;DHT22;13444;50.562;7.262;2022-07-23T06:36:33;21.30;99.90
25550;DHT22;13444;50.562;7.262;2022-07-23T06:38:59;21.40;99.90
25550;DHT22;13444;50.562;7.262;2022-07-23T06:41:24;21.20;99.90
25550;DHT22;13444;50.562;7.262;2022-07-23T06:43:50;21.00;99.90
25550;DHT22;13444;50.562;7.262;2022-07-23T06:46:16;20.80;99.90
25550;DHT22;13444;50.562;7.262;2022-07-23T06:48:41;20.70;99.90
25550;DHT22;13444;50.562;7.262;2022-07-23T06:51:07;20.80;99.90
25550;DHT22;13444;50.562;7.262;2022-07-23T06:53:32;21.10;99.90
25550;DHT22;13444;50.562;7.262;2022-07-23T06:55:58;21.30;99.90
25550;DHT22;13444;50.562;7.262;2022-07-23T06:58:23;21.50;99.90
25550;DHT22;13444;50.562;7.262;2022-07-23T07:00:49;21.70;99.90
25550;DHT22;13444;50.562;7.262;2022-07-23T07:03:16;21.90;99.90
25550;DHT22;13444;50.562;7.262;2022-07-23T07:05:42;22.10;99.90
25550;DHT22;13444;50.562;7.262;2022-07-23T07:08:07;22.10;99.90
25550;DHT22;13444;50.562;7.262;2022-07-23T07:10:33;22.10;99.90
25550;DHT22;13444;50.562;7.262;2022-07-23T07:12:58;22.20;99.90
25550;DHT22;13444;50.562;7.262;2022-07-23T07:15:24;22.30;99.90
25550;DHT22;13444;50.562;7.262;2022-07-23T07:17:49;22.40;99.90
25550;DHT22;13444;50.562;7.262;2022-07-23T07:20:15;22.40;99.90
25550;DHT22;13444;50.562;7.262;2022-07-23T07:22:40;22.30;99.90
25550;DHT22;13444;50.562;7.262;2022-07-23T07:25:07;22.40;99.90
25550;DHT22;13444;50.562;7.262;2022-07-23T07:27:33;22.40;99.90
25550;DHT22;13444;50.562;7.262;2022-07-23T07:29:58;22.50;99.90
25550;DHT22;13444;50.562;7.262;2022-07-23T07:32:24;22.50;99.90
25550;DHT22;13444;50.562;7.262;2022-07-23T07:34:50;22.50;99.90
25550;DHT22;13444;50.562;7.262;2022-07-23T07:37:16;22.60;99.90
25550;DHT22;13444;50.562;7.262;2022-07-23T07:39:41;22.70;99.90
25550;DHT22;13444;50.562;7.262;2022-07-23T07:42:07;22.90;99.90
25550;DHT22;13444;50.562;7.262;2022-07-23T07:44:32;23.00;99.90
25550;DHT22;13444;50.562;7.262;2022-07-23T07:46:58;23.00;99.90
25550;DHT22;13444;50.562;7.262;2022-07-23T07:49:23;23.10;99.90
25550;DHT22;13444;50.562;7.262;2022-07-23T07:51:49;23.30;99.90
25550;DHT22;13444;50.562;7.262;2022-07-23T07:54:15;23.40;99.90
25550;DHT22;13444;50.562;7.262;2022-07-23T07:56:41;23.40;99.90
25550;DHT22;13444;50.562;7.262;2022-07-23T07:59:06;23.60;99.90
25550;DHT22;13444;50.562;7.262;2022-07-23T08:01:32;23.70;99.90
25550;DHT22;13444;50.562;7.262;2022-07-23T08:03:57;23.80;99.90
25550;DHT22;13444;50.562;7.262;2022-07-23T08:06:23;24.00;99.90
25550;DHT22;13444;50.562;7.262;2022-07-23T08:08:49;24.20;99.90
25550;DHT22;13444;50.562;7.262;2022-07-23T08:11:14;24.30;99.90
25550;DHT22;13444;50.562;7.262;2022-07-23T08:13:40;24.50;99.90
25550;DHT22;13444;50.562;7.262;2022-07-23T08:16:06;24.70;99.90
25550;DHT22;13444;50.562;7.262;2022-07-23T08:18:32;24.70;99.90
25550;DHT22;13444;50.562;7.262;2022-07-23T08:20:58;24.90;99.90
25550;DHT22;13444;50.562;7.262;2022-07-23T08:23:23;25.00;99.90
25550;DHT22;13444;50.562;7.262;2022-07-23T08:25:49;25.10;99.90
25550;DHT22;13444;50.562;7.262;2022-07-23T08:28:15;25.30;99.90
25550;DHT22;13444;50.562;7.262;2022-07-23T08:30:42;25.50;99.90
25550;DHT22;13444;50.562;7.262;2022-07-23T08:33:10;25.70;99.90
25550;DHT22;13444;50.562;7.262;2022-07-23T08:35:41;25.90;99.90
25550;DHT22;13444;50.562;7.262;2022-07-23T08:38:09;25.90;99.90
25550;DHT22;13444;50.562;7.262;2022-07-23T08:40:38;26.00;99.90
25550;DHT22;13444;50.562;7.262;2022-07-23T08:43:06;26.20;99.90
25550;DHT22;13444;50.562;7.262;2022-07-23T08:45:37;26.50;99.90
25550;DHT22;13444;50.562;7.262;2022-07-23T08:48:05;26.90;99.90
25550;DHT22;13444;50.562;7.262;2022-07-23T08:50:31;27.20;99.90
25550;DHT22;13444;50.562;7.262;2022-07-23T08:52:59;27.60;99.90
25550;DHT22;13444;50.562;7.262;2022-07-23T08:55:25;27.90;99.90
25550;DHT22;13444;50.562;7.262;2022-07-23T08:57:52;28.20;99.90
25550;DHT22;13444;50.562;7.262;2022-07-23T09:00:19;28.50;99.90
25550;DHT22;13444;50.562;7.262;2022-07-23T09:02:46;28.70;99.90
25550;DHT22;13444;50.562;7.262;2022-07-23T09:05:13;28.90;99.90
25550;DHT22;13444;50.562;7.262;2022-07-23T09:08:06;29.00;99.90
25550;DHT22;13444;50.562;7.262;2022-07-23T09:15:50;29.30;99.90
25550;DHT22;13444;50.562;7.262;2022-07-23T09:18:16;29.50;99.90
25550;DHT22;13444;50.562;7.262;2022-07-23T09:20:43;29.70;99.90
25550;DHT22;13444;50.562;7.262;2022-07-23T09:23:10;29.90;99.90
25550;DHT22;13444;50.562;7.262;2022-07-23T09:25:36;29.90;99.90
25550;DHT22;13444;50.562;7.262;2022-07-23T09:28:01;29.80;99.90
25550;DHT22;13444;50.562;7.262;2022-07-23T09:30:32;29.90;99.90
25550;DHT22;13444;50.562;7.262;2022-07-23T09:33:15;30.10;99.90
25550;DHT22;13444;50.562;7.262;2022-07-23T09:38:15;30.30;99.90
25550;DHT22;13444;50.562;7.262;2022-07-23T09:40:42;30.50;99.90
25550;DHT22;13444;50.562;7.262;2022-07-23T09:43:08;30.60;99.90
25550;DHT22;13444;50.562;7.262;2022-07-23T09:45:33;30.70;99.90
25550;DHT22;13444;50.562;7.262;2022-07-23T09:48:14;30.90;99.90
25550;DHT22;13444;50.562;7.262;2022-07-23T09:50:41;30.90;99.90
25550;DHT22;13444;50.562;7.262;2022-07-23T09:53:07;30.90;99.30
25550;DHT22;13444;50.562;7.262;2022-07-23T09:55:35;30.50;99.90
25550;DHT22;13444;50.562;7.262;2022-07-23T09:58:07;30.60;99.90
25550;DHT22;13444;50.562;7.262;2022-07-23T10:00:38;30.70;99.00
25550;DHT22;13444;50.562;7.262;2022-07-23T10:03:05;30.60;99.90
25550;DHT22;13444;50.562;7.262;2022-07-23T10:05:31;30.70;99.90
25550;DHT22;13444;50.562;7.262;2022-07-23T10:07:59;30.90;99.90
25550;DHT22;13444;50.562;7.262;2022-07-23T10:10:26;31.20;99.90
25550;DHT22;13444;50.562;7.262;2022-07-23T10:12:54;31.20;99.90
25550;DHT22;13444;50.562;7.262;2022-07-23T10:15:40;31.50;99.80
25550;DHT22;13444;50.562;7.262;2022-07-23T10:18:07;31.80;98.80
25550;DHT22;13444;50.562;7.262;2022-07-23T10:20:35;31.90;98.40
25550;DHT22;13444;50.562;7.262;2022-07-23T10:23:24;31.70;96.90
25550;DHT22;13444;50.562;7.262;2022-07-23T10:26:06;31.40;98.20
25550;DHT22;13444;50.562;7.262;2022-07-23T10:34:41;32.00;95.70
25550;DHT22;13444;50.562;7.262;2022-07-23T10:37:12;31.70;97.80
25550;DHT22;13444;50.562;7.262;2022-07-23T10:40:09;32.00;97.70
25550;DHT22;13444;50.562;7.262;2022-07-23T10:42:35;32.40;96.50
25550;DHT22;13444;50.562;7.262;2022-07-23T10:45:01;32.60;95.60
25550;DHT22;13444;50.562;7.262;2022-07-23T10:47:46;32.60;94.80
25550;DHT22;13444;50.562;7.262;2022-07-23T10:50:25;32.80;94.90
25550;DHT22;13444;50.562;7.262;2022-07-23T10:53:09;33.00;93.90
25550;DHT22;13444;50.562;7.262;2022-07-23T10:58:05;33.50;93.70
25550;DHT22;13444;50.562;7.262;2022-07-23T11:00:33;33.60;92.70
25550;DHT22;13444;50.562;7.262;2022-07-23T11:03:00;33.50;92.40
25550;DHT22;13444;50.562;7.262;2022-07-23T11:05:40;33.60;92.30
25550;DHT22;13444;50.562;7.262;2022-07-23T11:10:37;33.80;90.10
25550;DHT22;13444;50.562;7.262;2022-07-23T11:26:55;34.20;87.20
25550;DHT22;13444;50.562;7.262;2022-07-23T11:32:20;34.80;84.20
25550;DHT22;13444;50.562;7.262;2022-07-23T11:34:49;34.80;80.90
25550;DHT22;13444;50.562;7.262;2022-07-23T11:37:38;34.60;84.90
25550;DHT22;13444;50.562;7.262;2022-07-23T11:40:07;34.70;84.40
25550;DHT22;13444;50.562;7.262;2022-07-23T11:42:34;35.00;82.70
25550;DHT22;13444;50.562;7.262;2022-07-23T11:45:00;35.10;81.90
25550;DHT22;13444;50.562;7.262;2022-07-23T11:47:27;35.20;82.50
25550;DHT22;13444;50.562;7.262;2022-07-23T11:49:58;35.30;83.40
25550;DHT22;13444;50.562;7.262;2022-07-23T11:52:25;35.50;82.40
25550;DHT22;13444;50.562;7.262;2022-07-23T11:57:17;35.70;79.90
25550;DHT22;13444;50.562;7.262;2022-07-23T11:59:43;35.70;81.50
25550;DHT22;13444;50.562;7.262;2022-07-23T12:02:11;35.80;82.00
25550;DHT22;13444;50.562;7.262;2022-07-23T12:04:48;35.90;81.30
25550;DHT22;13444;50.562;7.262;2022-07-23T12:10:10;35.70;80.70
25550;DHT22;13444;50.562;7.262;2022-07-23T12:12:38;35.50;81.00
25550;DHT22;13444;50.562;7.262;2022-07-23T12:15:05;35.50;80.70
25550;DHT22;13444;50.562;7.262;2022-07-23T12:17:32;35.40;79.00
25550;DHT22;13444;50.562;7.262;2022-07-23T12:19:59;34.30;80.20
25550;DHT22;13444;50.562;7.262;2022-07-23T12:22:26;34.20;83.60
25550;DHT22;13444;50.562;7.262;2022-07-23T12:25:09;34.20;82.30
25550;DHT22;13444;50.562;7.262;2022-07-23T12:27:35;33.90;83.30
25550;DHT22;13444;50.562;7.262;2022-07-23T12:30:22;34.10;85.50
25550;DHT22;13444;50.562;7.262;2022-07-23T12:32:51;34.40;82.40
25550;DHT22;13444;50.562;7.262;2022-07-23T12:35:17;34.50;83.60
25550;DHT22;13444;50.562;7.262;2022-07-23T12:37:44;34.90;85.10
25550;DHT22;13444;50.562;7.262;2022-07-23T12:40:27;35.00;81.50
25550;DHT22;13444;50.562;7.262;2022-07-23T12:42:57;35.00;83.10
25550;DHT22;13444;50.562;7.262;2022-07-23T12:45:23;34.40;80.30
25550;DHT22;13444;50.562;7.262;2022-07-23T12:48:04;34.00;83.00
25550;DHT22;13444;50.562;7.262;2022-07-23T12:53:07;33.90;85.70
25550;DHT22;13444;50.562;7.262;2022-07-23T12:55:33;34.20;84.30
25550;DHT22;13444;50.562;7.262;2022-07-23T12:58:04;33.90;81.10
25550;DHT22;13444;50.562;7.262;2022-07-23T13:00:31;33.20;81.80
25550;DHT22;13444;50.562;7.262;2022-07-23T13:02:57;32.00;85.60
25550;DHT22;13444;50.562;7.262;2022-07-23T13:05:23;31.70;87.10
25550;DHT22;13444;50.562;7.262;2022-07-23T13:07:48;31.70;88.40
25550;DHT22;13444;50.562;7.262;2022-07-23T13:10:14;32.00;89.00
25550;DHT22;13444;50.562;7.262;2022-07-23T13:12:39;32.50;88.30
25550;DHT22;13444;50.562;7.262;2022-07-23T13:15:06;32.90;87.80
25550;DHT22;13444;50.562;7.262;2022-07-23T13:17:31;33.10;86.50
25550;DHT22;13444;50.562;7.262;2022-07-23T13:19:57;33.30;88.00
25550;DHT22;13444;50.562;7.262;2022-07-23T13:22:22;33.50;85.20
25550;DHT22;13444;50.562;7.262;2022-07-23T13:24:48;33.70;84.70
25550;DHT22;13444;50.562;7.262;2022-07-23T13:27:14;33.60;85.80
25550;DHT22;13444;50.562;7.262;2022-07-23T13:29:39;33.60;85.60
25550;DHT22;13444;50.562;7.262;2022-07-23T13:32:06;33.70;85.60
25550;DHT22;13444;50.562;7.262;2022-07-23T13:34:31;33.40;83.80
25550;DHT22;13444;50.562;7.262;2022-07-23T13:36:57;32.90;84.80
25550;DHT22;13444;50.562;7.262;2022-07-23T13:39:23;32.80;86.40
25550;DHT22;13444;50.562;7.262;2022-07-23T13:41:48;32.90;85.80
25550;DHT22;13444;50.562;7.262;2022-07-23T13:44:14;32.90;85.80
25550;DHT22;13444;50.562;7.262;2022-07-23T13:46:39;32.90;84.30
25550;DHT22;13444;50.562;7.262;2022-07-23T13:49:04;32.80;85.80
25550;DHT22;13444;50.562;7.262;2022-07-23T13:51:31;32.70;84.60
25550;DHT22;13444;50.562;7.262;2022-07-23T13:53:56;32.70;84.90
25550;DHT22;13444;50.562;7.262;2022-07-23T13:56:24;32.40;84.70
25550;DHT22;13444;50.562;7.262;2022-07-23T13:58:50;32.00;85.20
25550;DHT22;13444;50.562;7.262;2022-07-23T14:01:15;31.80;85.10
25550;DHT22;13444;50.562;7.262;2022-07-23T14:03:41;31.70;86.10
25550;DHT22;13444;50.562;7.262;2022-07-23T14:06:06;31.70;86.30
25550;DHT22;13444;50.562;7.262;2022-07-23T14:08:32;31.70;85.90
25550;DHT22;13444;50.562;7.262;2022-07-23T14:10:57;31.20;84.40
25550;DHT22;13444;50.562;7.262;2022-07-23T14:13:23;30.70;85.90
25550;DHT22;13444;50.562;7.262;2022-07-23T14:15:48;30.50;88.30
25550;DHT22;13444;50.562;7.262;2022-07-23T14:18:16;30.30;88.40
25550;DHT22;13444;50.562;7.262;2022-07-23T14:20:41;30.10;88.40
25550;DHT22;13444;50.562;7.262;2022-07-23T14:23:07;29.90;88.20
25550;DHT22;13444;50.562;7.262;2022-07-23T14:25:32;29.60;88.30
25550;DHT22;13444;50.562;7.262;2022-07-23T14:27:58;29.40;89.40
25550;DHT22;13444;50.562;7.262;2022-07-23T14:30:24;29.20;89.70
25550;DHT22;13444;50.562;7.262;2022-07-23T14:32:50;29.10;90.40
25550;DHT22;13444;50.562;7.262;2022-07-23T14:35:15;29.00;90.20
25550;DHT22;13444;50.562;7.262;2022-07-23T14:37:41;28.90;90.10
25550;DHT22;13444;50.562;7.262;2022-07-23T14:40:07;28.90;91.40
25550;DHT22;13444;50.562;7.262;2022-07-23T14:42:32;29.20;90.70
25550;DHT22;13444;50.562;7.262;2022-07-23T14:44:58;29.30;89.50
25550;DHT22;13444;50.562;7.262;2022-07-23T14:47:23;29.20;90.10
25550;DHT22;13444;50.562;7.262;2022-07-23T14:49:49;28.90;90.30
25550;DHT22;13444;50.562;7.262;2022-07-23T14:52:15;28.90;90.30
25550;DHT22;13444;50.562;7.262;2022-07-23T14:54:40;28.80;90.10
25550;DHT22;13444;50.562;7.262;2022-07-23T14:57:06;28.70;90.80
25550;DHT22;13444;50.562;7.262;2022-07-23T14:59:33;28.60;90.30
25550;DHT22;13444;50.562;7.262;2022-07-23T15:01:59;28.50;90.90
25550;DHT22;13444;50.562;7.262;2022-07-23T15:04:25;28.50;91.70
25550;DHT22;13444;50.562;7.262;2022-07-23T15:06:51;28.70;91.70
25550;DHT22;13444;50.562;7.262;2022-07-23T15:09:16;28.80;90.70
25550;DHT22;13444;50.562;7.262;2022-07-23T15:11:42;28.90;91.40
25550;DHT22;13444;50.562;7.262;2022-07-23T15:14:08;29.00;91.20
25550;DHT22;13444;50.562;7.262;2022-07-23T15:16:34;29.00;91.50
25550;DHT22;13444;50.562;7.262;2022-07-23T15:19:01;29.10;91.80
25550;DHT22;13444;50.562;7.262;2022-07-23T15:21:27;29.20;91.30
25550;DHT22;13444;50.562;7.262;2022-07-23T15:23:55;29.30;91.60
25550;DHT22;13444;50.562;7.262;2022-07-23T15:26:20;29.20;90.80
25550;DHT22;13444;50.562;7.262;2022-07-23T15:28:48;29.00;90.90
25550;DHT22;13444;50.562;7.262;2022-07-23T15:31:13;28.90;91.80
25550;DHT22;13444;50.562;7.262;2022-07-23T15:33:39;28.90;91.20
25550;DHT22;13444;50.562;7.262;2022-07-23T15:36:05;28.90;91.20
25550;DHT22;13444;50.562;7.262;2022-07-23T15:38:31;28.90;91.80
25550;DHT22;13444;50.562;7.262;2022-07-23T15:40:57;28.90;91.20
25550;DHT22;13444;50.562;7.262;2022-07-23T15:43:23;28.90;91.40
25550;DHT22;13444;50.562;7.262;2022-07-23T15:45:50;29.00;91.60
25550;DHT22;13444;50.562;7.262;2022-07-23T15:48:16;29.00;91.00
25550;DHT22;13444;50.562;7.262;2022-07-23T15:50:41;28.80;90.80
25550;DHT22;13444;50.562;7.262;2022-07-23T15:53:07;28.80;91.30
25550;DHT22;13444;50.562;7.262;2022-07-23T15:55:33;28.80;91.90
25550;DHT22;13444;50.562;7.262;2022-07-23T15:57:58;28.80;91.00
25550;DHT22;13444;50.562;7.262;2022-07-23T16:00:24;28.80;91.10
25550;DHT22;13444;50.562;7.262;2022-07-23T16:02:49;28.80;91.10
25550;DHT22;13444;50.562;7.262;2022-07-23T16:05:15;28.80;91.50
25550;DHT22;13444;50.562;7.262;2022-07-23T16:07:56;28.80;91.30
25550;DHT22;13444;50.562;7.262;2022-07-23T16:10:22;28.80;92.30